ZKJSP NZAR-NZAR

Flight info

Callsign ZKJSP
Flight time 0h 2m
Altitude 1100
Route CIRCUITS
Aircraft C172/L-VGD/N

Departure

Time 2026-04-18 08:10
Airport Ardmore Airport (NZAR)

Arrival

Time 2026-04-18 08:12
Airport Ardmore Airport (NZAR)
Time Latitude Longitude Altitude Speed Heading
2026-04-18 07:56 -37.03402 174.97302 105 ft 0 kts 236°
2026-04-18 08:02 -37.03403 174.97302 104 ft 1 kts 235°
2026-04-18 08:02 -37.03410 174.97265 105 ft 5 kts 253°
2026-04-18 08:02 -37.03390 174.97237 105 ft 7 kts
2026-04-18 08:02 -37.03363 174.97272 105 ft 8 kts 45°
2026-04-18 08:03 -37.03320 174.97322 105 ft 8 kts 12°
2026-04-18 08:03 -37.03309 174.97264 105 ft 12 kts 223°
2026-04-18 08:03 -37.03358 174.97202 105 ft 8 kts 227°
2026-04-18 08:03 -37.03414 174.97131 105 ft 15 kts 225°
2026-04-18 08:04 -37.03485 174.97040 106 ft 11 kts 226°
2026-04-18 08:04 -37.03532 174.96982 106 ft 9 kts 231°
2026-04-18 08:04 -37.03524 174.96971 106 ft 0 kts 49°
2026-04-18 08:07 -37.03523 174.96972 106 ft 1 kts 56°
2026-04-18 08:08 -37.03539 174.96971 106 ft 6 kts 226°
2026-04-18 08:08 -37.03536 174.96912 107 ft 8 kts 316°
2026-04-18 08:08 -37.03507 174.96914 107 ft 0 kts 47°
2026-04-18 08:09 -37.03409 174.97036 107 ft 45 kts 46°
2026-04-18 08:09 -37.03153 174.97403 241 ft 59 kts 34°
2026-04-18 08:09 -37.02853 174.97738 490 ft 58 kts 31°
2026-04-18 08:09 -37.02537 174.98094 686 ft 66 kts 41°
2026-04-18 08:10 -37.02643 174.98755 868 ft 95 kts 120°
2026-04-18 08:10 -37.03055 174.99400 1020 ft 102 kts 117°
2026-04-18 08:10 -37.03789 174.99546 1005 ft 119 kts 223°
2026-04-18 08:10 -37.04309 174.98786 1028 ft 115 kts 249°
2026-04-18 08:11 -37.04733 174.97925 1018 ft 116 kts 251°
2026-04-18 08:11 -37.05123 174.97105 984 ft 100 kts 254°
2026-04-18 08:11 -37.05228 174.96407 854 ft 70 kts 315°
2026-04-18 08:11 -37.04869 174.96062 752 ft 66 kts 337°
2026-04-18 08:12 -37.04498 174.95800 649 ft 56 kts
2026-04-18 08:12 -37.04200 174.96086 508 ft 55 kts 36°
2026-04-18 08:12 -37.03937 174.96393 381 ft 48 kts 33°
2026-04-18 08:12 -37.03698 174.96677 220 ft 47 kts 33°
2026-04-18 08:13 -37.03480 174.96953 123 ft 41 kts 34°
2026-04-18 08:13 -37.03322 174.97150 107 ft 32 kts 45°
2026-04-18 08:13 -37.03067 174.97474 161 ft 64 kts 36°
2026-04-18 08:13 -37.02721 174.97893 340 ft 72 kts 38°
2026-04-18 08:14 -37.02400 174.98319 649 ft 63 kts 36°
2026-04-18 08:14 -37.02464 174.98953 801 ft 99 kts 119°
2026-04-18 08:14 -37.02932 174.99636 930 ft 106 kts 119°
2026-04-18 08:14 -37.03652 174.99868 973 ft 120 kts 224°
2026-04-18 08:15 -37.04148 174.99082 988 ft 116 kts 252°
2026-04-18 08:15 -37.04558 174.98198 1003 ft 119 kts 253°
2026-04-18 08:15 -37.04951 174.97304 962 ft 111 kts 256°
2026-04-18 08:15 -37.05265 174.96518 885 ft 90 kts 274°
2026-04-18 08:16 -37.05079 174.95984 766 ft 61 kts 342°
2026-04-18 08:16 -37.04702 174.95778 657 ft 59 kts 348°
2026-04-18 08:16 -37.04395 174.95845 545 ft 50 kts 32°
2026-04-18 08:16 -37.04146 174.96146 447 ft 46 kts 30°
2026-04-18 08:17 -37.03926 174.96403 330 ft 43 kts 29°
2026-04-18 08:17 -37.03703 174.96668 241 ft 45 kts 33°
2026-04-18 08:17 -37.03476 174.96952 141 ft 47 kts 34°
2026-04-18 08:17 -37.03285 174.97204 107 ft 26 kts 54°
2026-04-18 08:18 -37.03087 174.97461 131 ft 58 kts 47°
2026-04-18 08:18 -37.02781 174.97846 264 ft 67 kts 31°
2026-04-18 08:18 -37.02411 174.98224 468 ft 70 kts 33°
2026-04-18 08:18 -37.02188 174.98760 696 ft 86 kts 81°
2026-04-18 08:19 -37.02541 174.99457 918 ft 97 kts 121°
2026-04-18 08:19 -37.03119 175.00043 974 ft 122 kts 166°
2026-04-18 08:19 -37.03817 174.99620 975 ft 115 kts 241°
2026-04-18 08:19 -37.04289 174.98787 973 ft 120 kts 247°
2026-04-18 08:20 -37.04755 174.97914 981 ft 121 kts 248°
2026-04-18 08:20 -37.05205 174.97071 994 ft 111 kts 249°
2026-04-18 08:20 -37.05590 174.96303 1001 ft 101 kts 253°
2026-04-18 08:20 -37.05589 174.95629 952 ft 69 kts 327°
2026-04-18 08:21 -37.05183 174.95347 905 ft 63 kts 340°
2026-04-18 08:21 -37.04780 174.95287 774 ft 66 kts 32°
2026-04-18 08:21 -37.04476 174.95677 613 ft 59 kts 32°
2026-04-18 08:21 -37.04203 174.96040 497 ft 50 kts 33°
2026-04-18 08:22 -37.03987 174.96319 363 ft 44 kts 28°
2026-04-18 08:22 -37.03786 174.96581 269 ft 41 kts 33°
2026-04-18 08:22 -37.03584 174.96818 175 ft 41 kts 31°
2026-04-18 08:22 -37.03380 174.97077 116 ft 42 kts 32°
2026-04-18 08:23 -37.03204 174.97297 108 ft 49 kts 46°
2026-04-18 08:23 -37.02925 174.97696 224 ft 66 kts 39°
2026-04-18 08:23 -37.02618 174.98143 423 ft 69 kts 34°
2026-04-18 08:23 -37.02306 174.98595 657 ft 78 kts 62°
2026-04-18 08:24 -37.02545 174.99319 840 ft 104 kts 121°
2026-04-18 08:24 -37.03074 174.99998 921 ft 121 kts 149°
2026-04-18 08:24 -37.03877 174.99793 976 ft 123 kts 236°
2026-04-18 08:24 -37.04403 174.98992 981 ft 118 kts 249°
2026-04-18 08:25 -37.04849 174.98138 999 ft 116 kts 251°
2026-04-18 08:25 -37.05254 174.97280 976 ft 112 kts 255°
2026-04-18 08:25 -37.05622 174.96436 961 ft 106 kts 258°
2026-04-18 08:25 -37.05865 174.95667 986 ft 79 kts 292°
2026-04-18 08:26 -37.05562 174.95285 960 ft 64 kts 346°
2026-04-18 08:26 -37.05145 174.95107 887 ft 64 kts 348°
2026-04-18 08:26 -37.04777 174.95324 781 ft 62 kts 38°
2026-04-18 08:26 -37.04505 174.95652 648 ft 49 kts 30°
2026-04-18 08:27 -37.04271 174.95952 522 ft 47 kts 31°
2026-04-18 08:27 -37.04043 174.96241 405 ft 46 kts 30°
2026-04-18 08:27 -37.03826 174.96522 304 ft 42 kts 31°
2026-04-18 08:27 -37.03612 174.96781 205 ft 44 kts 33°
2026-04-18 08:28 -37.03400 174.97050 123 ft 42 kts 32°
2026-04-18 08:28 -37.03221 174.97271 108 ft 43 kts 45°
2026-04-18 08:28 -37.02975 174.97662 216 ft 64 kts 42°
2026-04-18 08:28 -37.02628 174.98063 369 ft 72 kts 33°
2026-04-18 08:29 -37.02237 174.98438 589 ft 72 kts 27°
2026-04-18 08:29 -37.02118 174.99118 825 ft 105 kts 101°
2026-04-18 08:29 -37.02653 174.99830 1053 ft 115 kts 129°
2026-04-18 08:29 -37.03416 175.00309 1095 ft 135 kts 187°
2026-04-18 08:30 -37.04107 174.99718 1090 ft 117 kts 249°
2026-04-18 08:30 -37.04560 174.98878 1102 ft 117 kts 251°
2026-04-18 08:30 -37.04996 174.98023 1107 ft 117 kts 253°
2026-04-18 08:30 -37.05412 174.97184 1084 ft 109 kts 255°
2026-04-18 08:31 -37.05772 174.96434 1055 ft 91 kts 256°
2026-04-18 08:31 -37.05975 174.95781 974 ft 71 kts 299°
2026-04-18 08:31 -37.05698 174.95427 920 ft 55 kts 341°
2026-04-18 08:31 -37.05365 174.95226 855 ft 53 kts 343°
2026-04-18 08:32 -37.05004 174.95126 763 ft 53 kts 15°
2026-04-18 08:32 -37.04714 174.95370 648 ft 50 kts 33°
2026-04-18 08:32 -37.04473 174.95693 507 ft 51 kts 33°
2026-04-18 08:32 -37.04241 174.96011 424 ft 45 kts 32°
2026-04-18 08:33 -37.04017 174.96281 349 ft 48 kts 30°
2026-04-18 08:33 -37.03778 174.96577 289 ft 46 kts 31°
2026-04-18 08:33 -37.03547 174.96861 185 ft 51 kts 35°
2026-04-18 08:33 -37.03318 174.97154 107 ft 38 kts 32°
2026-04-18 08:34 -37.03127 174.97398 113 ft 56 kts 36°
2026-04-18 08:34 -37.02824 174.97780 286 ft 65 kts 34°
2026-04-18 08:34 -37.02514 174.98179 530 ft 64 kts 41°
2026-04-18 08:34 -37.02387 174.98742 738 ft 90 kts 97°
2026-04-18 08:35 -37.02830 174.99376 903 ft 104 kts 126°
2026-04-18 08:35 -37.03441 174.99953 976 ft 127 kts 168°
2026-04-18 08:35 -37.04198 174.99541 976 ft 118 kts 249°
2026-04-18 08:35 -37.04573 174.98656 990 ft 115 kts 258°
2026-04-18 08:36 -37.04928 174.97753 1006 ft 116 kts 258°
2026-04-18 08:36 -37.05263 174.96842 967 ft 115 kts 259°
2026-04-18 08:36 -37.05574 174.95998 959 ft 96 kts 266°
2026-04-18 08:36 -37.05459 174.95425 900 ft 63 kts 338°
2026-04-18 08:37 -37.05051 174.95235 819 ft 65 kts 353°
2026-04-18 08:37 -37.04671 174.95471 715 ft 66 kts 34°
2026-04-18 08:37 -37.04366 174.95826 613 ft 51 kts 31°
2026-04-18 08:37 -37.04148 174.96123 494 ft 42 kts 27°
2026-04-18 08:38 -37.03937 174.96375 387 ft 42 kts 28°
2026-04-18 08:38 -37.03730 174.96625 280 ft 41 kts 33°
2026-04-18 08:38 -37.03506 174.96910 137 ft 48 kts 34°
2026-04-18 08:38 -37.03307 174.97161 107 ft 43 kts 46°
2026-04-18 08:39 -37.03034 174.97541 204 ft 65 kts 35°
2026-04-18 08:39 -37.02681 174.97912 430 ft 64 kts 28°
2026-04-18 08:39 -37.02347 174.98313 638 ft 74 kts 44°
2026-04-18 08:39 -37.02471 174.99037 872 ft 103 kts 119°
2026-04-18 08:40 -37.02954 174.99734 1052 ft 113 kts 123°
2026-04-18 08:40 -37.03698 175.00196 1068 ft 131 kts 188°
2026-04-18 08:40 -37.04351 174.99609 1053 ft 113 kts 255°
2026-04-18 08:40 -37.04688 174.98739 1086 ft 110 kts 261°
2026-04-18 08:41 -37.05032 174.97868 1082 ft 111 kts 261°
2026-04-18 08:41 -37.05346 174.97030 1041 ft 95 kts 262°
2026-04-18 08:41 -37.05517 174.96361 1010 ft 67 kts 296°
2026-04-18 08:41 -37.05263 174.95988 987 ft 53 kts 331°
2026-04-18 08:42 -37.04972 174.95715 960 ft 54 kts 332°
2026-04-18 08:42 -37.04668 174.95574 938 ft 42 kts 15°
2026-04-18 08:42 -37.04410 174.95771 734 ft 48 kts 28°
2026-04-18 08:42 -37.04180 174.96074 601 ft 47 kts 28°
2026-04-18 08:43 -37.03953 174.96351 489 ft 45 kts 26°
2026-04-18 08:43 -37.03751 174.96599 359 ft 38 kts 30°
2026-04-18 08:43 -37.03548 174.96857 185 ft 47 kts 32°
2026-04-18 08:43 -37.03314 174.97157 107 ft 41 kts 34°
2026-04-18 08:44 -37.03120 174.97404 108 ft 58 kts 45°
2026-04-18 08:44 -37.02818 174.97839 267 ft 69 kts 36°
2026-04-18 08:44 -37.02441 174.98207 477 ft 70 kts 27°
2026-04-18 08:44 -37.02173 174.98710 789 ft 87 kts 77°
2026-04-18 08:45 -37.02553 174.99411 1017 ft 109 kts 126°
2026-04-18 08:45 -37.03242 174.99983 1067 ft 132 kts 170°
2026-04-18 08:45 -37.04008 174.99534 1055 ft 120 kts 246°
2026-04-18 08:45 -37.04429 174.98673 1063 ft 114 kts 258°
2026-04-18 08:46 -37.04769 174.97789 1067 ft 113 kts 261°
2026-04-18 08:46 -37.05090 174.96901 1061 ft 110 kts 261°
2026-04-18 08:46 -37.05385 174.96101 996 ft 93 kts 265°
2026-04-18 08:46 -37.05295 174.95548 905 ft 61 kts 339°
2026-04-18 08:47 -37.04912 174.95307 836 ft 61 kts 346°
2026-04-18 08:47 -37.04570 174.95589 728 ft 57 kts 32°
2026-04-18 08:47 -37.04333 174.95892 588 ft 44 kts 27°
2026-04-18 08:47 -37.04120 174.96144 476 ft 41 kts 27°
2026-04-18 08:48 -37.03898 174.96396 405 ft 43 kts 30°
2026-04-18 08:48 -37.03686 174.96678 293 ft 49 kts 33°
2026-04-18 08:48 -37.03452 174.96983 130 ft 46 kts 33°
2026-04-18 08:48 -37.03304 174.97168 107 ft 14 kts 60°
2026-04-18 08:49 -37.03328 174.97242 105 ft 5 kts 41°
2026-04-18 08:49 -37.03290 174.97290 105 ft 8 kts 80°
2026-04-18 08:49 -37.03330 174.97315 105 ft 8 kts 226°
2026-04-18 08:49 -37.03374 174.97260 105 ft 8 kts 224°
2026-04-18 08:50 -37.03408 174.97267 105 ft 8 kts 108°
2026-04-18 08:50 -37.03402 174.97299 105 ft 0 kts 58°